ORMM/BSR METAR and TAF weather

Enter ICAO airport designator
Station Type Date Time Source
ORMM METAR 2020/03/31 09:00 UTC NOAA

ORMM 310900Z 16007KT CAVOK 31/02 Q1017 NOSIG


Station Type Date Time Source
ORMM Decoded METAR 2020/03/31 09:00 UTC NOAA

Station name not available
Mar 31, 2020 - 05:00 AM EDT / 2020.03.31 0900 UTC
Wind: from the SSE (160 degrees) at 8 MPH (7 KT):0
Visibility: greater than 7 mile(s):0
Temperature: 87 F (31 C)
Dew Point: 35 F (2 C)
Relative Humidity: 15%
Pressure (altimeter): 30.03 in. Hg (1017 hPa)
ob: ORMM 310900Z 16007KT CAVOK 31/02 Q1017 NOSIG
cycle: 9

Station Type Date Time Source
ORMM TAF 2020/03/31 06:19 UTC NOAA

TAF ORMM 310400Z 3106/0106 VRB03KT 8000 NSC
BECMG 3119/3121 11010KT 8000 FEW035 SCT100

Example: see airport list